Futenma Marine Corps Air Facility, Japan

6:24 AM JST on August 23, 2014 (GMT +0900)
Hiyagon | Change Station
CLOSE
Current Station
Personal Weather Station
Location: Okinawa, OKINAWA
Elevation: 23 ft
Nearby Weather Stations

Elev 23 ft 26.32 °N, 127.82 °E | Updated 7 seconds ago

Partly Cloudy
Partly Cloudy
82.6 °F
Feels Like 92 °F
N
0.0
Wind Variable Wind from NNW
Gusts 0.0 mph

Today
High -- | Low -- °F
--% Chance of Precip.
Yesterday
High -- | Low -- °F
Precip. -- in
6:04 AM 6:58 PM
Waning Crescent, 7% visible
Pressure 29.83 in
Visibility 6.2 miles
Clouds Few 1500 ft
Heat Index 92 °F
Dew Point 78 °F
Humidity 87%
Rainfall 0.00 in
Snow Depth Not available.
UV 0 out of 12
Pollen Not available.
Air Quality Not available.
Flu Activity Not available.
METAR ROAH 222100Z VRB01KT 9999 FEW015 SCT/// 27/24 Q1010 RMK 1CU015 A2984

More Conditions Fewer Conditions

Pressure 29.83 in
Visibility 6.2 miles
Clouds Few 1500 ft
Heat Index 92 °F
Dew Point 78 °F
Humidity 87%
Rainfall 0.00 in
Snow Depth Not available.
UV 0 out of 12
Pollen Not available.
Air Quality Not available.
Flu Activity Not available.
METAR ROAH 222100Z VRB01KT 9999 FEW015 SCT/// 27/24 Q1010 RMK 1CU015 A2984

More Conditions Fewer Conditions

10-Day Weather Forecast

Almanac

Astronomy

Aug. 23, 2014 Rise Set
Actual Time 6:04 AM JST 6:58 PM JST
Civil Twilight 5:40 AM JST 7:22 PM JST
Nautical Twilight 5:12 AM JST 7:50 PM JST
Astronomical Twilight 4:44 AM JST 8:18 PM JST
Moon 3:54 AM JST (8/23) 5:17 PM JST (8/23)
Length of Visible Light 13h 41m
Length of Day
12h 53m
Tomorrow will be 1m 25s shorter.
Waning Crescent, 7% of the Moon is Illuminated
Aug 22
Waning Crescent
Aug 25
New
Sep 2
First Quarter
Sep 8
Full
Sep 15
Last Quarter

Yesterday's Extremes

Country Highs Country Lows

Community

WunderPhotos

Upload Photos

1,746,254 photos uploaded!

Nearby

Snow Depth

Not available.

Earthquake Activity

City Distance Mag. Time & Date
No recent earthquake activity has been reported nearby.
Minimum magnitude displayed is 2.5.

Coastal Water Temperatures

Place Temperature
No Stations Reporting

Nearby Weather Stations